createdAt,value
2018-03-27T00:00:00.638Z,4.70
2018-03-27T00:02:30.266Z,3.33
2018-03-27T00:05:00.972Z,4.10
2018-03-27T00:07:30.374Z,3.30
2018-03-27T00:10:01.077Z,3.80
2018-03-27T00:12:31.769Z,4.00
2018-03-27T00:15:01.391Z,4.90
2018-03-27T00:17:31.027Z,3.00
2018-03-27T00:20:02.030Z,3.20
2018-03-27T00:22:31.554Z,2.80
2018-03-27T00:25:02.165Z,8.53
2018-03-27T00:27:42.741Z,2.53
2018-03-27T00:30:24.659Z,2.23
2018-03-27T00:33:05.079Z,3.10
2018-03-27T00:35:45.657Z,3.50
2018-03-27T00:38:26.200Z,4.33
2018-03-27T00:40:55.067Z,4.20
2018-03-27T00:43:25.308Z,2.90
2018-03-27T00:45:54.797Z,3.80
2018-03-27T00:48:24.089Z,3.80
2018-03-27T00:50:54.623Z,3.60
2018-03-27T00:53:24.213Z,5.00
2018-03-27T00:55:53.955Z,4.87
2018-03-27T00:58:23.543Z,4.30
2018-03-27T01:00:53.301Z,4.47
2018-03-27T01:03:24.135Z,3.40
2018-03-27T01:05:56.173Z,4.00
2018-03-27T01:08:26.450Z,3.33
2018-03-27T01:10:56.598Z,10.23
2018-03-27T01:13:27.498Z,4.77
2018-03-27T01:16:02.413Z,4.00
2018-03-27T01:18:32.228Z,3.37
2018-03-27T01:21:01.280Z,3.20
2018-03-27T01:23:30.867Z,3.17
2018-03-27T01:26:00.816Z,3.37
2018-03-27T01:28:30.456Z,2.93
2018-03-27T01:31:00.960Z,2.93
2018-03-27T01:33:30.955Z,3.10
2018-03-27T01:35:59.835Z,3.17
2018-03-27T01:38:29.488Z,2.23
2018-03-27T01:40:58.357Z,3.10
2018-03-27T01:43:28.102Z,2.40
2018-03-27T01:45:57.325Z,2.80
2018-03-27T01:48:26.686Z,2.70
2018-03-27T01:50:56.125Z,3.70
2018-03-27T01:53:25.843Z,3.77
2018-03-27T01:55:55.154Z,2.77
2018-03-27T01:58:23.973Z,7.23
2018-03-27T02:00:52.790Z,7.00
2018-03-27T02:03:23.565Z,3.57
2018-03-27T02:05:52.876Z,3.13
2018-03-27T02:08:22.680Z,3.80
2018-03-27T02:10:52.026Z,3.43
2018-03-27T02:13:26.695Z,3.03
2018-03-27T02:16:03.457Z,3.13
2018-03-27T02:18:39.841Z,4.70
2018-03-27T02:21:15.432Z,2.50
2018-03-27T02:23:46.113Z,4.47
2018-03-27T02:26:15.749Z,3.60
2018-03-27T02:28:46.464Z,2.20
2018-03-27T02:31:15.921Z,2.50
2018-03-27T02:33:46.497Z,2.15
2018-03-27T02:36:15.735Z,4.90
2018-03-27T02:38:45.704Z,1.97
2018-03-27T02:41:14.991Z,2.58
2018-03-27T02:43:44.719Z,2.40
2018-03-27T02:46:14.286Z,2.85
2018-03-27T02:48:45.227Z,2.87
2018-03-27T02:51:15.858Z,5.70
2018-03-27T02:53:46.330Z,4.20
2018-03-27T02:56:15.527Z,3.40
2018-03-27T02:58:44.821Z,2.80
2018-03-27T03:01:14.594Z,3.40
2018-03-27T03:03:45.688Z,3.33
2018-03-27T03:06:23.134Z,5.60
2018-03-27T03:08:53.122Z,4.83
2018-03-27T03:11:22.910Z,5.82
2018-03-27T03:13:52.390Z,8.30
2018-03-27T03:16:21.898Z,5.70
2018-03-27T03:18:52.489Z,9.53
2018-03-27T03:21:21.831Z,7.30
2018-03-27T03:23:51.011Z,4.10
2018-03-27T03:26:20.956Z,3.20
2018-03-27T03:28:50.582Z,3.00
2018-03-27T03:31:20.880Z,2.83
2018-03-27T03:33:50.171Z,3.60
2018-03-27T03:36:19.258Z,3.63
2018-03-27T03:38:49.131Z,3.13
2018-03-27T03:41:19.677Z,2.70
2018-03-27T03:43:49.455Z,4.43
2018-03-27T03:46:20.902Z,3.60
2018-03-27T03:48:50.402Z,4.00
2018-03-27T03:51:21.147Z,3.50
2018-03-27T03:53:51.487Z,3.70
2018-03-27T03:56:21.055Z,2.95
2018-03-27T03:58:50.420Z,2.83
2018-03-27T04:01:19.871Z,3.13
2018-03-27T04:03:49.980Z,3.50
2018-03-27T04:06:20.097Z,2.87
2018-03-27T04:08:49.757Z,3.10
2018-03-27T04:11:18.898Z,2.73
2018-03-27T04:13:47.993Z,3.20
2018-03-27T04:16:17.537Z,3.10
2018-03-27T04:18:47.594Z,3.20
2018-03-27T04:21:16.869Z,3.60
2018-03-27T04:23:46.601Z,4.00
2018-03-27T04:26:17.148Z,3.58
2018-03-27T04:28:46.388Z,3.35
2018-03-27T04:31:16.708Z,7.87
2018-03-27T04:33:45.863Z,8.10
2018-03-27T04:36:15.106Z,13.07
2018-03-27T04:38:44.435Z,8.53
2018-03-27T04:41:13.773Z,7.27
2018-03-27T04:43:43.065Z,5.00
2018-03-27T04:46:12.367Z,3.35
2018-03-27T04:48:41.814Z,5.35
2018-03-27T04:51:11.432Z,4.40
2018-03-27T04:53:40.241Z,12.90
2018-03-27T04:56:09.528Z,6.67
2018-03-27T04:58:38.836Z,9.00
2018-03-27T05:01:08.117Z,8.47
2018-03-27T05:03:37.397Z,4.87
2018-03-27T05:06:07.085Z,4.93
2018-03-27T05:08:36.457Z,6.80
2018-03-27T05:11:05.732Z,5.77
2018-03-27T05:13:35.881Z,3.15
2018-03-27T05:16:05.538Z,3.45
2018-03-27T05:18:34.641Z,5.27
2018-03-27T05:21:03.759Z,3.70
2018-03-27T05:23:33.131Z,3.80
2018-03-27T05:26:02.751Z,3.40
2018-03-27T05:28:32.276Z,3.47
2018-03-27T05:31:01.773Z,3.15
2018-03-27T05:33:31.141Z,3.43
2018-03-27T05:36:01.552Z,3.72
2018-03-27T05:38:30.844Z,3.67
2018-03-27T05:41:01.019Z,4.12
2018-03-27T05:43:30.334Z,4.25
2018-03-27T05:46:00.032Z,4.03
2018-03-27T05:48:29.595Z,4.25
2018-03-27T05:51:00.385Z,3.25
2018-03-27T05:53:29.912Z,4.10
2018-03-27T05:55:59.714Z,3.80
2018-03-27T05:58:29.219Z,3.80
2018-03-27T06:00:59.098Z,5.28
2018-03-27T06:03:28.152Z,3.72
2018-03-27T06:05:58.309Z,3.43
2018-03-27T06:08:27.779Z,3.30
2018-03-27T06:10:57.416Z,3.25
2018-03-27T06:13:26.671Z,3.15
2018-03-27T06:15:56.299Z,2.53
2018-03-27T06:18:26.324Z,3.47
2018-03-27T06:20:55.578Z,2.60
2018-03-27T06:23:24.885Z,3.17
2018-03-27T06:25:54.813Z,3.25
2018-03-27T06:28:24.896Z,3.72
2018-03-27T06:30:54.514Z,3.15
2018-03-27T06:33:23.907Z,3.17
2018-03-27T06:35:53.151Z,3.20
2018-03-27T06:38:24.392Z,2.70
2018-03-27T06:40:54.627Z,3.10
2018-03-27T06:43:23.984Z,3.20
2018-03-27T06:45:53.831Z,4.00
2018-03-27T06:50:57.378Z,3.90
2018-03-27T06:53:27.354Z,4.25
2018-03-27T06:55:57.495Z,4.75
2018-03-27T06:58:26.876Z,4.28
2018-03-27T07:00:56.377Z,4.70
2018-03-27T07:03:26.649Z,4.20
2018-03-27T07:05:55.845Z,3.37
2018-03-27T07:08:25.048Z,2.53
2018-03-27T07:10:55.184Z,3.53
2018-03-27T07:13:25.316Z,3.67
2018-03-27T07:15:56.316Z,4.30
2018-03-27T07:18:25.921Z,4.65
2018-03-27T07:20:55.783Z,6.30
2018-03-27T07:23:25.096Z,4.60
2018-03-27T07:25:54.623Z,7.87
2018-03-27T07:28:24.728Z,6.65
2018-03-27T07:30:54.304Z,12.27
2018-03-27T07:33:23.585Z,7.37
2018-03-27T07:35:52.927Z,11.15
2018-03-27T07:38:22.201Z,6.25
2018-03-27T07:40:51.728Z,5.45
2018-03-27T07:43:21.019Z,4.30
2018-03-27T07:45:50.655Z,7.90
2018-03-27T07:48:21.151Z,8.27
2018-03-27T07:50:51.408Z,7.62
2018-03-27T07:53:20.739Z,6.47
2018-03-27T07:55:50.122Z,9.23
2018-03-27T07:58:19.515Z,7.18
2018-03-27T08:00:49.171Z,8.93
2018-03-27T08:03:20.035Z,7.50
2018-03-27T08:05:49.368Z,4.97
2018-03-27T08:08:19.072Z,6.20
2018-03-27T08:10:48.320Z,4.40
2018-03-27T08:13:17.663Z,3.72
2018-03-27T08:15:47.080Z,2.80
2018-03-27T08:18:16.641Z,5.25
2018-03-27T08:20:45.996Z,4.65
2018-03-27T08:23:15.292Z,3.90
2018-03-27T08:25:44.726Z,3.72
2018-03-27T08:28:14.308Z,3.22
2018-03-27T08:30:43.551Z,3.15
2018-03-27T08:33:13.403Z,3.10
2018-03-27T08:35:42.776Z,3.70
2018-03-27T08:38:12.040Z,3.30
2018-03-27T08:40:41.341Z,3.62
2018-03-27T08:43:11.481Z,3.12
2018-03-27T08:45:40.810Z,2.85
2018-03-27T08:48:10.080Z,2.95
2018-03-27T08:50:39.385Z,4.80
2018-03-27T08:53:08.770Z,6.75
2018-03-27T08:55:38.282Z,7.78
2018-03-27T08:58:07.583Z,4.15
2018-03-27T09:00:37.079Z,3.23
2018-03-27T09:03:06.151Z,5.45
2018-03-27T09:05:36.512Z,3.78
2018-03-27T09:08:05.795Z,4.00
2018-03-27T09:10:35.712Z,2.42
2018-03-27T09:13:05.017Z,3.53
2018-03-27T09:15:34.283Z,3.00
2018-03-27T09:18:04.271Z,3.90
2018-03-27T09:20:33.622Z,3.03
2018-03-27T09:23:02.933Z,2.40
2018-03-27T09:25:32.416Z,3.97
2018-03-27T09:28:01.545Z,2.50
2018-03-27T09:30:31.039Z,2.67
2018-03-27T09:33:00.534Z,2.70
2018-03-27T09:35:30.245Z,2.85
2018-03-27T09:37:59.637Z,3.10
2018-03-27T09:40:30.257Z,2.70
2018-03-27T09:42:59.751Z,3.60
2018-03-27T09:45:29.104Z,2.58
2018-03-27T09:47:58.568Z,2.28
2018-03-27T09:50:27.888Z,2.60
2018-03-27T09:52:57.236Z,2.60
2018-03-27T09:55:26.710Z,2.50
2018-03-27T09:57:55.972Z,3.10
2018-03-27T10:00:46.154Z,2.75
2018-03-27T10:03:15.663Z,2.58
2018-03-27T10:05:44.776Z,3.45
2018-03-27T10:08:14.053Z,3.80
2018-03-27T10:10:43.596Z,2.65
2018-03-27T10:13:12.875Z,2.60
2018-03-27T10:15:42.802Z,3.60
2018-03-27T10:18:12.391Z,4.85
2018-03-27T10:20:41.917Z,3.90
2018-03-27T10:23:11.446Z,6.15
2018-03-27T10:25:40.734Z,3.20
2018-03-27T10:28:10.225Z,3.15
2018-03-27T10:30:39.500Z,3.50
2018-03-27T10:33:08.619Z,3.25
2018-03-27T10:35:38.108Z,3.17
2018-03-27T10:38:07.349Z,3.28
2018-03-27T10:40:36.910Z,2.97
2018-03-27T10:43:06.730Z,3.17
2018-03-27T10:45:35.857Z,3.22
2018-03-27T10:48:05.147Z,3.30
2018-03-27T10:50:34.464Z,3.95
2018-03-27T10:53:04.241Z,3.20
2018-03-27T10:55:33.521Z,2.87
2018-03-27T10:58:02.754Z,4.03
2018-03-27T11:00:32.210Z,2.60
2018-03-27T11:03:02.248Z,3.22
2018-03-27T11:05:31.712Z,2.67
2018-03-27T11:08:02.460Z,3.17
2018-03-27T11:10:31.604Z,2.83
2018-03-27T11:13:01.388Z,2.30
2018-03-27T11:15:30.713Z,2.30
2018-03-27T11:18:00.218Z,3.17
2018-03-27T11:20:29.524Z,2.85
2018-03-27T11:22:58.615Z,3.55
2018-03-27T11:25:29.366Z,2.90
2018-03-27T11:27:58.847Z,3.47
2018-03-27T11:30:28.548Z,3.15
2018-03-27T11:32:57.806Z,3.58
2018-03-27T11:35:27.290Z,3.72
2018-03-27T11:37:56.903Z,3.87
2018-03-27T11:40:26.987Z,3.30
2018-03-27T11:42:56.283Z,3.55
2018-03-27T11:45:25.530Z,3.40
2018-03-27T11:47:56.012Z,2.45
2018-03-27T11:50:25.668Z,3.75
2018-03-27T11:52:54.788Z,3.22
2018-03-27T11:55:23.999Z,3.33
2018-03-27T11:57:55.201Z,5.65
2018-03-27T12:00:24.597Z,4.27
2018-03-27T12:02:54.877Z,5.45
2018-03-27T12:05:24.149Z,4.55
2018-03-27T12:07:53.835Z,3.83
2018-03-27T12:10:23.137Z,5.00
2018-03-27T12:12:52.562Z,3.53
2018-03-27T12:15:22.152Z,3.78
2018-03-27T12:17:51.558Z,6.10
2018-03-27T12:20:20.671Z,4.45
2018-03-27T12:22:49.809Z,7.90
2018-03-27T12:25:19.232Z,4.97
2018-03-27T12:27:48.532Z,5.97
2018-03-27T12:30:17.827Z,9.23
2018-03-27T12:32:48.032Z,4.20
2018-03-27T12:35:17.976Z,4.75
2018-03-27T12:37:47.289Z,4.68
2018-03-27T12:40:16.577Z,4.87
2018-03-27T12:42:46.600Z,4.05
2018-03-27T12:45:15.898Z,3.80
2018-03-27T12:47:45.200Z,3.53
2018-03-27T12:50:14.308Z,2.72
2018-03-27T12:52:43.690Z,3.30
2018-03-27T12:55:12.974Z,4.25
2018-03-27T12:57:42.504Z,3.05
2018-03-27T13:00:11.808Z,3.45
2018-03-27T13:02:41.115Z,3.80
2018-03-27T13:05:10.831Z,2.78
2018-03-27T13:07:40.504Z,2.72
2018-03-27T13:10:10.687Z,2.87
2018-03-27T13:12:40.374Z,2.60
2018-03-27T13:15:10.266Z,3.20
2018-03-27T13:17:39.622Z,2.50
2018-03-27T13:20:10.116Z,3.00
2018-03-27T13:22:39.935Z,2.60
2018-03-27T13:25:09.624Z,2.37
2018-03-27T13:27:38.872Z,2.25
2018-03-27T13:30:08.475Z,2.87
2018-03-27T13:32:37.832Z,2.60
2018-03-27T13:35:07.243Z,2.50
2018-03-27T13:37:36.639Z,2.90
2018-03-27T13:40:06.152Z,4.25
2018-03-27T13:42:35.453Z,4.40
2018-03-27T13:45:04.901Z,3.55
2018-03-27T13:47:34.757Z,2.90
2018-03-27T13:50:03.845Z,3.20
2018-03-27T13:52:33.367Z,3.25
2018-03-27T13:55:02.800Z,2.85
2018-03-27T13:57:32.658Z,2.83
2018-03-27T14:00:02.400Z,2.50
2018-03-27T14:02:32.665Z,2.80
2018-03-27T14:05:01.826Z,2.67
2018-03-27T14:07:31.470Z,2.62
2018-03-27T14:12:34.421Z,3.00
2018-03-27T14:15:04.170Z,2.35
2018-03-27T14:17:33.410Z,2.80
2018-03-27T14:20:02.482Z,3.35
2018-03-27T14:22:32.075Z,2.40
2018-03-27T14:25:01.421Z,2.25
2018-03-27T14:27:30.655Z,2.85
2018-03-27T14:29:59.869Z,3.15
2018-03-27T14:32:29.077Z,2.58
2018-03-27T14:34:58.559Z,2.30
2018-03-27T14:37:28.272Z,2.85
2018-03-27T14:39:57.399Z,2.83
2018-03-27T14:42:27.464Z,2.95
2018-03-27T14:44:56.780Z,2.30
2018-03-27T14:47:26.921Z,3.00
2018-03-27T14:49:56.251Z,2.67
2018-03-27T14:52:25.906Z,2.70
2018-03-27T14:54:55.640Z,2.58
2018-03-27T14:57:25.034Z,2.85
2018-03-27T14:59:54.332Z,3.00
2018-03-27T15:02:23.432Z,2.75
2018-03-27T15:04:52.778Z,2.95
2018-03-27T15:07:22.463Z,2.55
2018-03-27T15:09:52.616Z,2.55
2018-03-27T15:12:21.995Z,2.75
2018-03-27T15:14:51.288Z,2.50
2018-03-27T15:17:21.397Z,2.70
2018-03-27T15:19:50.748Z,3.22
2018-03-27T15:22:20.285Z,2.05
2018-03-27T15:24:49.583Z,2.65
2018-03-27T15:27:19.402Z,3.28
2018-03-27T15:29:48.804Z,2.60
2018-03-27T15:32:18.210Z,2.25
2018-03-27T15:34:47.490Z,2.50
2018-03-27T15:37:16.846Z,2.90
2018-03-27T15:39:46.724Z,2.90
2018-03-27T15:42:16.116Z,3.40
2018-03-27T15:44:46.031Z,2.62
2018-03-27T15:47:15.553Z,3.07
2018-03-27T15:49:46.007Z,3.17
2018-03-27T15:52:15.178Z,3.20
2018-03-27T15:54:44.725Z,2.37
2018-03-27T15:57:14.172Z,2.60
2018-03-27T15:59:43.660Z,3.53
2018-03-27T16:02:13.171Z,2.78
2018-03-27T16:04:43.097Z,2.53
2018-03-27T16:07:12.390Z,2.67
2018-03-27T16:09:41.706Z,2.47
2018-03-27T16:12:11.755Z,2.55
2018-03-27T16:14:41.124Z,2.67
2018-03-27T16:17:10.869Z,3.00
2018-03-27T16:19:40.408Z,2.87
2018-03-27T16:22:10.648Z,2.85
2018-03-27T16:24:40.341Z,2.87
2018-03-27T16:27:10.038Z,3.10
2018-03-27T16:29:39.571Z,3.08
2018-03-27T16:32:08.687Z,2.40
2018-03-27T16:34:38.129Z,2.80
2018-03-27T16:37:07.472Z,3.67
2018-03-27T16:39:36.573Z,2.73
2018-03-27T16:42:05.871Z,2.60
2018-03-27T16:44:35.375Z,3.03
2018-03-27T16:47:04.505Z,2.43
2018-03-27T16:49:34.202Z,2.90
2018-03-27T16:52:03.898Z,3.50
2018-03-27T16:54:33.180Z,2.77
2018-03-27T16:57:02.794Z,4.00
2018-03-27T16:59:33.215Z,2.92
2018-03-27T17:02:02.496Z,3.60
2018-03-27T17:04:31.780Z,3.80
2018-03-27T17:07:01.071Z,3.00
2018-03-27T17:09:30.387Z,3.40
2018-03-27T17:11:59.832Z,4.43
2018-03-27T17:14:29.191Z,3.13
2018-03-27T17:16:58.673Z,3.55
2018-03-27T17:19:28.158Z,3.53
2018-03-27T17:21:57.496Z,3.40
2018-03-27T17:24:26.923Z,3.53
2018-03-27T17:26:56.099Z,3.83
2018-03-27T17:29:26.278Z,3.83
2018-03-27T17:31:56.017Z,3.27
2018-03-27T17:34:26.117Z,3.37
2018-03-27T17:36:55.470Z,3.37
2018-03-27T17:39:24.842Z,3.30
2018-03-27T17:41:54.258Z,4.73
2018-03-27T17:44:23.696Z,4.90
2018-03-27T17:46:53.215Z,4.50
2018-03-27T17:49:22.760Z,3.80
2018-03-27T17:51:52.163Z,3.40
2018-03-27T17:54:22.059Z,3.90
2018-03-27T17:56:52.498Z,4.33
2018-03-27T17:59:23.027Z,5.70
2018-03-27T18:01:52.346Z,5.47
2018-03-27T18:04:21.581Z,4.30
2018-03-27T18:06:50.915Z,3.80
2018-03-27T18:09:21.097Z,3.70
2018-03-27T18:11:50.502Z,5.27
2018-03-27T18:14:20.062Z,4.43
2018-03-27T18:16:49.553Z,5.40
2018-03-27T18:19:18.973Z,3.87
2018-03-27T18:21:48.061Z,3.00
2018-03-27T18:24:17.360Z,3.20
2018-03-27T18:26:47.090Z,3.87
2018-03-27T18:29:16.593Z,3.73
2018-03-27T18:31:45.930Z,3.13
2018-03-27T18:34:15.580Z,3.77
2018-03-27T18:36:45.094Z,3.23
2018-03-27T18:39:14.780Z,4.30
2018-03-27T18:41:44.245Z,3.20
2018-03-27T18:44:14.124Z,4.10
2018-03-27T18:46:43.295Z,5.43
2018-03-27T18:49:12.799Z,6.30
2018-03-27T18:51:42.100Z,4.10
2018-03-27T18:54:11.370Z,4.43
2018-03-27T18:56:40.889Z,4.47
2018-03-27T18:59:11.229Z,4.00
2018-03-27T19:01:42.347Z,5.47
2018-03-27T19:04:11.830Z,4.57
2018-03-27T19:06:41.802Z,3.60
2018-03-27T19:09:11.412Z,3.77
2018-03-27T19:11:41.270Z,5.50
2018-03-27T19:14:10.722Z,4.00
2018-03-27T19:16:40.226Z,5.33
2018-03-27T19:19:09.601Z,4.57
2018-03-27T19:21:39.078Z,3.57
2018-03-27T19:24:08.818Z,3.27
2018-03-27T19:26:39.063Z,3.93
2018-03-27T19:29:08.631Z,3.70
2018-03-27T19:31:38.870Z,3.93
2018-03-27T19:34:09.081Z,3.73
2018-03-27T19:36:39.065Z,2.90
2018-03-27T19:39:08.595Z,3.00
2018-03-27T19:41:38.670Z,2.73
2018-03-27T19:44:08.013Z,3.80
2018-03-27T19:46:38.230Z,3.20
2018-03-27T19:49:07.490Z,3.70
2018-03-27T19:51:36.802Z,3.07
2018-03-27T19:54:06.034Z,2.87
2018-03-27T19:56:35.340Z,3.30
2018-03-27T19:59:05.126Z,2.77
2018-03-27T20:01:34.158Z,2.87
2018-03-27T20:04:03.963Z,2.93
2018-03-27T20:06:33.072Z,3.73
2018-03-27T20:09:02.545Z,2.70
2018-03-27T20:11:33.214Z,2.77
2018-03-27T20:14:03.162Z,2.60
2018-03-27T20:16:32.886Z,3.10
2018-03-27T20:19:02.515Z,2.07
2018-03-27T20:21:32.421Z,2.50
2018-03-27T20:24:03.287Z,2.80
2018-03-27T20:26:33.406Z,2.60
2018-03-27T20:29:02.386Z,2.43
2018-03-27T20:31:32.476Z,2.10
2018-03-27T20:34:02.608Z,2.13
2018-03-27T20:36:33.083Z,2.40
2018-03-27T20:39:03.039Z,2.43
2018-03-27T20:41:32.649Z,2.50
2018-03-27T20:44:03.536Z,2.73
2018-03-27T20:46:33.521Z,2.70
2018-03-27T20:49:03.412Z,2.63
2018-03-27T20:51:33.229Z,2.83
2018-03-27T20:54:03.377Z,2.63
2018-03-27T20:56:33.206Z,7.33
2018-03-27T20:59:03.172Z,5.70
2018-03-27T21:01:32.676Z,5.33
2018-03-27T21:04:03.765Z,2.70
2018-03-27T21:06:32.888Z,8.13
2018-03-27T21:09:01.873Z,3.30
2018-03-27T21:11:31.035Z,3.47
2018-03-27T21:14:00.863Z,2.20
2018-03-27T21:16:30.723Z,2.67
2018-03-27T21:19:00.435Z,1.87
2018-03-27T21:21:30.987Z,1.83
2018-03-27T21:24:00.843Z,1.80
2018-03-27T21:26:30.450Z,2.23
2018-03-27T21:29:00.331Z,1.73
2018-03-27T21:31:30.523Z,2.30
2018-03-27T21:34:01.754Z,1.70
2018-03-27T21:36:31.890Z,1.57
2018-03-27T21:39:01.942Z,1.60
2018-03-27T21:41:31.957Z,1.53
2018-03-27T21:44:01.497Z,2.00
2018-03-27T21:46:31.792Z,1.60
2018-03-27T21:49:02.183Z,1.67
2018-03-27T21:51:32.286Z,1.50
2018-03-27T21:54:03.112Z,1.47
2018-03-27T21:56:32.977Z,1.67
2018-03-27T21:59:03.482Z,1.73
2018-03-27T22:01:33.338Z,1.50
2018-03-27T22:04:04.350Z,1.87
2018-03-27T22:06:34.426Z,1.63
2018-03-27T22:09:04.934Z,2.17
2018-03-27T22:11:35.809Z,1.43
2018-03-27T22:14:06.338Z,1.93
2018-03-27T22:16:36.544Z,1.60
2018-03-27T22:19:07.741Z,1.53
2018-03-27T22:21:37.627Z,1.67
2018-03-27T22:24:10.125Z,1.57
2018-03-27T22:26:40.067Z,1.60
2018-03-27T22:29:10.880Z,1.83
2018-03-27T22:31:41.031Z,1.83
2018-03-27T22:34:12.005Z,1.90
2018-03-27T22:36:43.907Z,1.77
2018-03-27T22:39:14.500Z,1.80
2018-03-27T22:41:45.463Z,1.47
2018-03-27T22:44:15.324Z,1.90
2018-03-27T22:46:45.263Z,1.80
2018-03-27T22:49:15.084Z,1.60
2018-03-27T22:51:44.931Z,1.50
2018-03-27T22:54:15.161Z,1.40
2018-03-27T22:56:45.019Z,1.50
2018-03-27T22:59:16.670Z,1.60
2018-03-27T23:01:46.486Z,1.70
2018-03-27T23:04:16.539Z,1.60
2018-03-27T23:06:46.312Z,1.57
2018-03-27T23:09:16.262Z,1.70
2018-03-27T23:11:46.036Z,1.70
2018-03-27T23:14:16.100Z,1.77
2018-03-27T23:16:45.819Z,1.97
2018-03-27T23:19:15.899Z,1.70
2018-03-27T23:21:45.870Z,1.90
2018-03-27T23:24:17.988Z,1.83
2018-03-27T23:26:48.239Z,1.70
2018-03-27T23:29:18.344Z,1.70
2018-03-27T23:31:49.120Z,1.93
2018-03-27T23:34:19.043Z,1.63
2018-03-27T23:36:49.296Z,1.90
2018-03-27T23:39:20.902Z,1.40
2018-03-27T23:41:53.876Z,2.10
2018-03-27T23:44:24.592Z,1.70
2018-03-27T23:46:58.892Z,1.70
2018-03-27T23:49:29.480Z,2.70
2018-03-27T23:51:59.637Z,2.80
2018-03-27T23:54:29.863Z,2.50
2018-03-27T23:57:00.445Z,2.10
2018-03-27T23:59:31.107Z,1.90
